Historique des mesures à Cassis (13260), France
Quotidien Résumé Septembre 15, 2017 Unités:  Métrique    US   Métrique/US
« Précédent (Jour)
Suivant (Jour) »
Quotidien Hebdomadaire Mensuel Annuel Période au choix
  Maximum: Minimum: Moyenne:
Température: TemperatureC °C 13.7 °C 15.5 °C
Point de rosée: DewpointC °C 4.3 °C 5.6 °C
Humidité: Humidity % 40 % 49 %
Vitesse du vent: 0 km/h 0 km/h 16.9 km/h
Rafales: 0 km/h - -
Vent:- - SSW
Pression: PressurehPa hPa 1007.3 hPa -
Précipitations: 0.0 mm    
Historical Graphs
 
 
Mesures pour : Septembre 15, 2017
Heure Temperature Point de rosée Pression Vent Vitesse du vent Rafales Humidité Pluie (par heure) Conditions
TemperatureC °C DewpointC °C PressurehPa hPa Calm     Humidity % HourlyPrecipMM mm SoftwareType W/m2
00:11 18.2 °C 4.4 °C 1010.7 hPa WNW 27.7 km/h 47.3 km/h 40 % 0.0 mm open2300-1.11 W/m2
01:11 17.6 °C 4.8 °C 1010.4 hPa NNW 23 km/h 42.2 km/h 43 % 0.0 mm open2300-1.11 W/m2
02:11 16.9 °C 5.4 °C 1010.0 hPa North 19.6 km/h 27.2 km/h 47 % 0.0 mm open2300-1.11 W/m2
03:11 16.2 °C 5.4 °C 1010.0 hPa Calm   7.6 km/h 49 % 0.0 mm open2300-1.11 W/m2
04:11 15.7 °C 5.6 °C 1009.4 hPa WNW 42.2 km/h 42.2 km/h 51 % 0.0 mm open2300-1.11 W/m2
05:11 15.1 °C 5.8 °C 1009.4 hPa NW 21.6 km/h 26.7 km/h 54 % 0.0 mm open2300-1.11 W/m2
06:11 15.1 °C 5.6 °C 1009.4 hPa North 31.9 km/h 31.9 km/h 53 % 0.0 mm open2300-1.11 W/m2
07:11 15.3 °C 5.5 °C 1009.0 hPa North 16.3 km/h 16.3 km/h 52 % 0.0 mm open2300-1.11 W/m2
08:11 15.4 °C 5.1 °C 1009.4 hPa NW 6.9 km/h 20.9 km/h 50 % 0.0 mm open2300-1.11 W/m2
09:11 15.8 °C 5.1 °C 1010.0 hPa WNW 25.4 km/h 31.9 km/h 49 % 0.0 mm open2300-1.11 W/m2
10:11 15.8 °C 5.4 °C 1010.0 hPa WNW 30.7 km/h 41.2 km/h 50 % 0.0 mm open2300-1.11 W/m2
11:11 16.4 °C 5.9 °C 1010.0 hPa NE 4.2 km/h 4.2 km/h 50 % 0.0 mm open2300-1.11 W/m2
12:11 17.1 °C 5.0 °C 1009.7 hPa NNE 14 km/h 18.7 km/h 45 % 0.0 mm open2300-1.11 W/m2
13:11 17.4 °C 4.3 °C 1009.7 hPa NNW 9.3 km/h 9.8 km/h 42 % 0.0 mm open2300-1.11 W/m2
14:11 17.3 °C 5.8 °C 1008.0 hPa West 17.4 km/h 19.6 km/h 47 % 0.0 mm open2300-1.11 W/m2
15:11 17.3 °C 5.2 °C 1008.0 hPa WNW 13.2 km/h 21.6 km/h 45 % 0.0 mm open2300-1.11 W/m2
16:11 17.5 °C 5.7 °C 1008.0 hPa North 19.6 km/h 19.6 km/h 46 % 0.0 mm open2300-1.11 W/m2
17:11 16.9 °C 5.4 °C 1008.0 hPa North 16.3 km/h 27.2 km/h 47 % 0.0 mm open2300-1.11 W/m2
18:11 16.9 °C 5.4 °C 1008.0 hPa NNE 8 km/h 10.9 km/h 47 % 0.0 mm open2300-1.11 W/m2
19:11 16.1 °C 6.5 °C 1007.3 hPa WNW 30.7 km/h 30.7 km/h 53 % 0.0 mm open2300-1.11 W/m2
20:11 15.1 °C 7.9 °C 1008.0 hPa NNW 15.6 km/h 40.7 km/h 62 % 0.0 mm open2300-1.11 W/m2
21:11 13.8 °C 8.4 °C 1008.4 hPa NNW 16.9 km/h 16.9 km/h 70 % 0.0 mm open2300-1.11 W/m2
22:11 14.1 °C 8.4 °C 1009.0 hPa NNE 2.3 km/h 2.3 km/h 69 % 0.0 mm open2300-1.11 W/m2
23:11 13.7 °C 8.7 °C 1008.0 hPa WNW 9.3 km/h 12.2 km/h 72 % 0.0 mm open2300-1.11 W/m2
Observations météo à CASSIS
WU-History script by Weather Underground - 1 mb